Time;durP1;ratioP1;P1;durP2;ratioP2;P2;SDS_P1;SDS_P2;PMS_P1;PMS_P2;Temp;Humidity;BMP_temperature;BMP_pressure;BME280_temperature;BME280_humidity;BME280_pressure;Samples;Min_cycle;Max_cycle;Signal;HPM_P1;HPM_P2
2022/11/15 00:00:26;;;;;;;0.40;0.40;;;;;;;8.17;78.42;100715.34;5068562;28;20487;-73
2022/11/15 00:02:55;;;;;;;2.35;2.25;;;;;;;8.14;79.08;100701.53;5068221;28;20061;-73
2022/11/15 00:06:01;;;;;;;0.50;0.50;;;;;;;8.13;79.12;100705.81;5068385;28;20025;-74
2022/11/15 00:08:30;;;;;;;0.50;0.50;;;;;;;8.18;78.89;100709.31;5050073;28;20139;-73
2022/11/15 00:11:16;;;;;;;0.50;0.50;;;;;;;8.14;78.63;100694.66;5050559;28;20036;-73
2022/11/15 00:16:37;;;;;;;1.05;1.05;;;;;;;8.03;79.01;100673.00;5081665;22;20061;-70
2022/11/15 00:19:03;;;;;;;0.73;0.73;;;;;;;8.14;79.63;100692.06;5022987;28;20155;-68
2022/11/15 00:21:28;;;;;;;0.50;0.50;;;;;;;8.15;79.06;100686.03;5067206;28;20025;-70
2022/11/15 00:23:53;;;;;;;0.57;0.57;;;;;;;8.17;79.37;100679.16;5068227;28;20551;-70
2022/11/15 00:26:44;;;;;;;0.50;0.50;;;;;;;8.17;79.17;100676.56;5068208;28;20031;-70
2022/11/15 00:29:27;;;;;;;0.50;0.50;;;;;;;8.19;78.77;100673.97;5068162;28;20017;-70
2022/11/15 00:32:01;;;;;;;0.60;0.60;;;;;;;8.16;78.98;100672.22;5067839;28;20036;-70
2022/11/15 00:34:39;;;;;;;0.45;0.45;;;;;;;8.14;78.80;100670.50;5067827;28;20029;-70
2022/11/15 00:37:06;;;;;;;0.50;0.50;;;;;;;8.22;78.65;100670.53;5067621;28;20028;-71
2022/11/15 00:39:31;;;;;;;0.50;0.50;;;;;;;8.14;78.95;100666.19;5067704;28;20027;-70
2022/11/15 00:41:57;;;;;;;0.50;0.50;;;;;;;8.17;78.81;100660.16;5067166;28;20053;-70
2022/11/15 00:44:37;;;;;;;0.40;0.40;;;;;;;8.26;77.86;100655.03;5049266;28;20081;-71
2022/11/15 00:47:02;;;;;;;0.50;0.50;;;;;;;8.17;78.02;100662.75;5067641;28;20033;-69
2022/11/15 00:49:46;;;;;;;1.17;1.08;;;;;;;8.10;78.46;100658.41;5067771;28;20108;-70
2022/11/15 00:52:15;;;;;;;0.50;0.50;;;;;;;8.15;77.47;100659.28;5066874;28;20025;-70
2022/11/15 00:54:40;;;;;;;0.50;0.50;;;;;;;8.45;75.76;100647.34;5049469;28;20040;-70
2022/11/15 00:57:05;;;;;;;0.60;0.60;;;;;;;8.17;76.26;100650.69;5067364;28;20029;-69
2022/11/15 00:59:50;;;;;;;0.55;0.55;;;;;;;8.06;76.84;100637.72;5067373;28;20066;-70
2022/11/15 01:02:38;;;;;;;0.50;0.50;;;;;;;8.16;76.74;100637.75;5067376;28;20118;-71
2022/11/15 01:09:04;;;;;;;0.85;0.85;;;;;;;7.98;77.25;100636.78;5061713;28;20040;-71
2022/11/15 01:11:29;;;;;;;0.70;0.70;;;;;;;8.02;76.83;100635.94;5067319;28;20044;-71
2022/11/15 01:14:10;;;;;;;0.50;0.50;;;;;;;7.97;76.82;100629.88;5067178;28;20039;-70
2022/11/15 01:16:36;;;;;;;0.50;0.50;;;;;;;8.12;76.22;100631.69;5067104;28;20059;-72
2022/11/15 01:19:01;;;;;;;0.40;0.40;;;;;;;8.23;75.45;100625.69;5067105;28;20024;-70
2022/11/15 01:21:27;;;;;;;0.50;0.50;;;;;;;7.85;76.82;100622.91;5067296;28;20025;-71
2022/11/15 01:23:56;;;;;;;0.50;0.50;;;;;;;8.09;76.45;100625.63;5066829;28;20063;-71
2022/11/15 01:26:45;;;;;;;0.50;0.50;;;;;;;8.08;76.18;100614.44;5066988;28;20059;-71
2022/11/15 01:29:13;;;;;;;0.50;0.50;;;;;;;7.93;77.18;100610.03;5065278;28;20044;-71
2022/11/15 01:31:38;;;;;;;5.60;1.70;;;;;;;7.92;77.50;100610.91;5066821;28;20032;-70
2022/11/15 01:34:10;;;;;;;0.50;0.50;;;;;;;7.92;77.39;100614.34;5066849;28;20021;-71
2022/11/15 01:36:42;;;;;;;0.60;0.60;;;;;;;7.93;77.30;100631.59;5066702;28;20029;-70
2022/11/15 01:39:09;;;;;;;0.40;0.40;;;;;;;7.96;77.52;100616.94;5066680;28;20323;-71
2022/11/15 01:41:34;;;;;;;0.50;0.50;;;;;;;8.04;76.94;100615.25;5066728;28;20021;-70
2022/11/15 01:44:39;;;;;;;0.40;0.40;;;;;;;7.92;77.67;100609.16;5066570;28;20100;-70
2022/11/15 01:47:10;;;;;;;0.50;0.50;;;;;;;7.92;78.40;100611.75;5066558;28;20028;-69
2022/11/15 01:49:55;;;;;;;0.88;0.88;;;;;;;7.93;78.02;100608.34;5066653;28;20029;-69
2022/11/15 01:52:27;;;;;;;1.98;1.88;;;;;;;7.96;77.96;100604.00;5066598;28;20080;-70
2022/11/15 01:55:13;;;;;;;0.50;0.50;;;;;;;7.97;78.01;100609.19;5066326;28;20044;-71
2022/11/15 01:57:44;;;;;;;0.40;0.40;;;;;;;8.09;77.33;100600.66;5066379;28;20293;-71
2022/11/15 02:00:22;;;;;;;0.50;0.50;;;;;;;8.00;77.57;100593.72;5066391;28;20155;-69
2022/11/15 02:02:47;;;;;;;0.50;0.50;;;;;;;7.95;77.90;100587.66;5066097;28;20032;-71
2022/11/15 02:05:26;;;;;;;0.50;0.50;;;;;;;7.91;78.02;100599.69;5066366;28;20029;-71
2022/11/15 02:07:52;;;;;;;0.50;0.50;;;;;;;7.92;77.85;100596.25;5066233;28;20472;-70
2022/11/15 02:10:36;;;;;;;0.50;0.50;;;;;;;7.92;77.96;100588.47;5066178;28;20089;-70
2022/11/15 02:13:11;;;;;;;3.53;1.65;;;;;;;7.88;78.10;100588.47;5066232;28;20024;-69
2022/11/15 02:16:01;;;;;;;0.50;0.50;;;;;;;7.87;78.32;100592.78;5065354;28;20052;-70
2022/11/15 02:19:24;;;;;;;0.40;0.40;;;;;;;7.93;77.84;100591.94;5065990;28;20033;-70
2022/11/15 02:22:12;;;;;;;0.80;0.80;;;;;;;7.84;77.93;100585.00;4984885;28;20066;-70
2022/11/15 02:25:05;;;;;;;0.50;0.50;;;;;;;7.83;78.31;100579.84;4984925;28;20038;-70
2022/11/15 02:28:04;;;;;;;0.82;0.82;;;;;;;7.89;77.86;100580.72;4984736;28;20045;-70
2022/11/15 02:31:13;;;;;;;0.50;0.50;;;;;;;7.83;78.25;100579.84;4984938;28;20081;-71
2022/11/15 02:34:31;;;;;;;0.50;0.50;;;;;;;7.87;77.93;100573.81;4984863;28;20038;-70
2022/11/15 02:37:17;;;;;;;0.50;0.50;;;;;;;7.88;77.38;100581.56;4965362;29;20114;-69
2022/11/15 02:40:08;;;;;;;0.50;0.50;;;;;;;7.80;77.74;100573.78;4965169;29;20039;-70
2022/11/15 02:45:58;;;;;;;0.40;0.40;;;;;;;7.84;77.42;100560.88;4964772;28;20046;-70
2022/11/15 02:49:23;;;;;;;1.30;1.30;;;;;;;7.76;77.55;100561.72;4965430;28;20066;-70
2022/11/15 02:55:55;;;;;;;0.90;0.90;;;;;;;7.70;77.83;100548.72;4963773;29;20578;-72
2022/11/15 02:58:49;;;;;;;0.52;0.52;;;;;;;7.81;77.04;100556.56;4987722;28;20044;-71
2022/11/15 03:01:31;;;;;;;0.50;0.50;;;;;;;7.79;77.55;100555.69;5023289;28;20552;-71
2022/11/15 03:04:32;;;;;;;0.50;0.50;;;;;;;7.74;77.44;100553.06;5023618;28;20049;-70
2022/11/15 03:07:11;;;;;;;0.40;0.40;;;;;;;7.83;77.10;100554.84;5024027;28;20047;-69
2022/11/15 03:10:33;;;;;;;0.50;0.50;;;;;;;7.75;77.18;100562.53;5065507;28;20080;-70
2022/11/15 03:14:00;;;;;;;0.77;0.77;;;;;;;7.77;76.96;100557.38;5065399;28;20025;-70
2022/11/15 03:17:06;;;;;;;0.50;0.50;;;;;;;7.74;77.44;100555.66;5025356;28;20053;-70
2022/11/15 03:20:01;;;;;;;0.50;0.50;;;;;;;7.91;76.42;100563.50;5065393;28;20227;-70
2022/11/15 03:22:37;;;;;;;0.50;0.50;;;;;;;7.89;75.73;100562.63;5065260;28;20029;-70
2022/11/15 03:25:08;;;;;;;0.50;0.50;;;;;;;7.89;76.26;100562.63;5065023;28;20074;-71
2022/11/15 03:27:56;;;;;;;0.47;0.47;;;;;;;7.62;77.14;100576.25;5065063;28;20020;-69
2022/11/15 03:30:54;;;;;;;0.50;0.50;;;;;;;7.66;77.16;100578.88;5065022;28;20089;-69
2022/11/15 03:33:21;;;;;;;1.60;1.50;;;;;;;7.61;77.42;100554.72;5065221;28;20158;-70
2022/11/15 03:36:34;;;;;;;0.63;0.63;;;;;;;7.56;77.91;100566.72;5065005;28;20021;-69
2022/11/15 03:42:32;;;;;;;0.50;0.50;;;;;;;7.61;77.91;100559.88;5065208;28;19959;-70
2022/11/15 03:45:15;;;;;;;2.15;2.05;;;;;;;7.57;78.05;100555.56;4983780;28;20043;-69
2022/11/15 03:48:35;;;;;;;5.10;2.35;;;;;;;7.64;78.06;100543.53;4983746;28;20035;-70
2022/11/15 03:51:04;;;;;;;0.50;0.50;;;;;;;7.56;78.14;100546.06;4983736;28;20030;-71
2022/11/15 03:53:30;;;;;;;0.50;0.50;;;;;;;7.60;78.32;100555.59;4983496;28;20030;-69
2022/11/15 03:56:05;;;;;;;0.50;0.50;;;;;;;7.56;78.31;100552.09;4983452;28;20198;-69
2022/11/15 03:58:51;;;;;;;0.70;0.70;;;;;;;8.18;76.32;100554.13;4986787;28;20088;-73
2022/11/15 04:01:16;;;;;;;0.50;0.50;;;;;;;7.70;77.30;100546.13;4986827;28;20027;-70
2022/11/15 04:03:42;;;;;;;0.50;0.50;;;;;;;7.59;77.96;100564.16;4987183;28;20161;-70
2022/11/15 04:06:07;;;;;;;0.85;0.85;;;;;;;7.71;77.55;100553.06;4987350;28;20127;-72
2022/11/15 04:08:32;;;;;;;0.88;0.80;;;;;;;7.66;77.52;100550.44;4987067;28;20046;-70
2022/11/15 04:10:58;;;;;;;0.60;0.60;;;;;;;7.62;77.87;100545.25;4986965;28;20050;-70
2022/11/15 04:13:23;;;;;;;0.50;0.50;;;;;;;7.80;76.99;100549.66;4987048;28;20031;-71
2022/11/15 04:16:10;;;;;;;0.52;0.52;;;;;;;7.89;75.85;100551.44;4963999;28;20039;-70
2022/11/15 04:18:37;;;;;;;0.50;0.50;;;;;;;7.65;77.07;100548.69;4967584;29;20027;-70
2022/11/15 04:24:31;;;;;;;2.17;1.50;;;;;;;7.60;77.45;100542.66;5048269;28;20033;-70
2022/11/15 04:27:00;;;;;;;0.90;0.90;;;;;;;7.55;77.98;100541.75;5037426;28;20029;-70
2022/11/15 04:29:34;;;;;;;0.40;0.40;;;;;;;7.53;78.06;100538.28;5047948;28;20025;-70
2022/11/15 04:32:04;;;;;;;0.75;0.75;;;;;;;7.47;78.33;100528.81;5047843;28;20166;-70
2022/11/15 04:34:30;;;;;;;1.52;1.50;;;;;;;7.49;78.71;100537.41;5047744;28;20032;-70
2022/11/15 04:37:14;;;;;;;0.98;0.60;;;;;;;7.52;78.54;100527.13;5047807;28;20021;-70
2022/11/15 04:39:40;;;;;;;0.85;0.80;;;;;;;7.67;78.32;100523.75;5047865;28;20044;-71
2022/11/15 04:42:06;;;;;;;0.50;0.50;;;;;;;7.52;78.62;100529.69;5048017;28;20025;-70
2022/11/15 04:44:31;;;;;;;0.40;0.40;;;;;;;7.51;78.88;100519.31;5047611;28;20075;-70
2022/11/15 04:46:57;;;;;;;0.50;0.50;;;;;;;7.59;78.54;100528.00;5047691;28;20022;-72
2022/11/15 04:49:22;;;;;;;0.82;0.82;;;;;;;7.56;78.47;100535.72;5047732;28;20026;-70
2022/11/15 04:51:47;;;;;;;0.50;0.50;;;;;;;7.54;78.44;100534.88;5047636;28;20029;-69
2022/11/15 04:54:13;;;;;;;0.50;0.50;;;;;;;7.58;78.21;100521.09;5047530;28;20025;-71
2022/11/15 04:56:38;;;;;;;0.40;0.40;;;;;;;7.56;78.42;100526.28;5047641;28;20037;-70
2022/11/15 04:59:04;;;;;;;0.70;0.70;;;;;;;7.64;78.17;100510.81;5047435;28;20029;-70
2022/11/15 05:01:29;;;;;;;0.52;0.52;;;;;;;7.53;78.65;100505.59;5047238;28;20112;-70
2022/11/15 05:06:38;;;;;;;0.50;0.50;;;;;;;7.66;77.86;100506.53;5047402;28;20067;-71
2022/11/15 05:09:03;;;;;;;0.50;0.50;;;;;;;7.66;77.98;100513.41;5047015;28;20104;-70
2022/11/15 05:11:29;;;;;;;0.50;0.50;;;;;;;7.60;77.91;100508.19;5047073;28;20044;-70
2022/11/15 05:13:55;;;;;;;2.35;2.25;;;;;;;7.50;78.64;100513.31;5047248;28;20075;-70
2022/11/15 05:16:20;;;;;;;0.50;0.50;;;;;;;7.50;79.03;100522.78;5057659;28;20127;-69
2022/11/15 05:18:45;;;;;;;1.30;1.27;;;;;;;7.61;78.11;100525.41;5067110;28;20441;-70
2022/11/15 05:21:14;;;;;;;0.50;0.50;;;;;;;7.59;78.45;100507.31;5066859;28;20049;-71
2022/11/15 05:23:40;;;;;;;0.50;0.50;;;;;;;7.71;77.27;100511.72;5049028;28;20103;-69
2022/11/15 05:26:08;;;;;;;2.15;1.92;;;;;;;7.52;78.26;100506.44;5048805;28;20029;-71
2022/11/15 05:28:34;;;;;;;0.50;0.50;;;;;;;7.52;78.62;100506.44;5066964;28;20033;-71
2022/11/15 05:31:04;;;;;;;0.60;0.60;;;;;;;7.52;78.61;100506.44;5066622;28;20028;-70
2022/11/15 05:33:31;;;;;;;0.50;0.50;;;;;;;7.53;78.66;100505.59;5066291;28;20055;-71
2022/11/15 05:36:03;;;;;;;0.93;0.93;;;;;;;7.77;77.43;100510.88;5066219;28;20446;-72
2022/11/15 05:38:29;;;;;;;0.50;0.50;;;;;;;7.61;77.54;100500.47;5066492;28;20021;-70
2022/11/15 05:40:55;;;;;;;0.50;0.50;;;;;;;7.62;77.92;100507.34;5066865;28;20478;-69
2022/11/15 05:43:21;;;;;;;0.43;0.43;;;;;;;7.65;77.86;100496.19;5066778;28;20036;-71
2022/11/15 05:45:46;;;;;;;0.50;0.50;;;;;;;7.61;77.31;100484.94;5066815;28;20056;-70
2022/11/15 05:48:13;;;;;;;0.57;0.57;;;;;;;7.57;78.21;100504.72;5066721;28;20116;-72
2022/11/15 05:50:43;;;;;;;1.35;1.25;;;;;;;7.56;78.16;100505.59;5066687;28;20017;-72
2022/11/15 05:53:12;;;;;;;0.50;0.50;;;;;;;7.52;78.50;100511.63;5066657;28;20361;-73
2022/11/15 05:55:39;;;;;;;0.50;0.50;;;;;;;7.53;78.71;100515.91;5064988;28;20033;-70
2022/11/15 05:58:04;;;;;;;0.88;0.88;;;;;;;7.55;78.79;100516.81;5066394;28;20104;-72
2022/11/15 06:00:30;;;;;;;2.40;1.10;;;;;;;7.55;78.46;100521.09;5066383;28;20032;-70
2022/11/15 06:02:55;;;;;;;0.43;0.43;;;;;;;7.67;78.21;100516.00;5066321;28;20025;-73
2022/11/15 06:05:20;;;;;;;0.35;0.35;;;;;;;7.68;77.61;100509.94;5066279;28;20029;-74
2022/11/15 06:07:46;;;;;;;0.50;0.50;;;;;;;7.62;77.73;100501.34;5066157;28;20035;-71
2022/11/15 06:10:11;;;;;;;0.75;0.75;;;;;;;7.54;78.14;100504.72;5066333;28;20112;-70
2022/11/15 06:12:36;;;;;;;1.00;1.00;;;;;;;7.53;78.23;100502.13;5066199;28;20081;-69
2022/11/15 06:15:02;;;;;;;0.50;0.50;;;;;;;7.51;78.38;100502.13;5066140;28;20614;-70
2022/11/15 06:17:28;;;;;;;0.50;0.50;;;;;;;7.56;78.37;100507.31;5065638;28;20052;-72
2022/11/15 06:19:53;;;;;;;0.50;0.50;;;;;;;7.59;77.85;100504.75;5065227;28;20027;-70
2022/11/15 06:22:19;;;;;;;3.90;2.90;;;;;;;7.84;76.65;100504.00;5066085;28;20077;-73
2022/11/15 06:24:44;;;;;;;0.50;0.50;;;;;;;7.86;75.89;100505.72;5065906;28;20035;-72
2022/11/15 06:27:10;;;;;;;0.50;0.50;;;;;;;7.60;77.25;100509.06;5065857;28;20020;-70
2022/11/15 06:29:36;;;;;;;0.50;0.50;;;;;;;7.82;76.19;100504.00;5065893;28;20051;-71
2022/11/15 06:32:01;;;;;;;0.55;0.55;;;;;;;7.72;76.79;100518.59;5065535;28;20016;-71
2022/11/15 06:34:26;;;;;;;0.50;0.50;;;;;;;7.63;77.35;100510.81;5065721;28;20017;-72
2022/11/15 06:36:52;;;;;;;0.50;0.50;;;;;;;7.77;76.34;100505.69;5047743;28;20457;-70
2022/11/15 06:39:17;;;;;;;1.35;1.27;;;;;;;7.57;77.11;100509.06;5047977;28;20021;-70
2022/11/15 06:41:42;;;;;;;0.60;0.60;;;;;;;7.62;77.40;100525.44;5065599;28;20025;-71
2022/11/15 06:44:08;;;;;;;0.50;0.50;;;;;;;7.59;77.44;100506.47;5065520;28;20143;-70
2022/11/15 06:46:33;;;;;;;0.50;0.50;;;;;;;7.57;77.45;100507.31;5065412;28;20043;-70
2022/11/15 06:48:58;;;;;;;0.40;0.40;;;;;;;7.72;76.31;100528.06;5065690;28;20023;-69
2022/11/15 06:51:24;;;;;;;0.50;0.50;;;;;;;7.84;76.07;100519.53;5065229;28;20380;-74
2022/11/15 06:53:49;;;;;;;0.50;0.50;;;;;;;7.78;75.65;100523.78;5065144;28;20021;-69
2022/11/15 06:56:14;;;;;;;0.50;0.50;;;;;;;7.62;76.89;100522.84;5065462;28;20044;-70
2022/11/15 06:58:40;;;;;;;0.50;0.50;;;;;;;7.65;76.79;100509.09;5065225;28;20029;-69
2022/11/15 07:01:08;;;;;;;0.50;0.50;;;;;;;7.85;75.97;100524.69;5065085;28;20118;-70
2022/11/15 07:03:35;;;;;;;0.47;0.47;;;;;;;7.73;76.48;100524.63;5065032;28;20036;-69
2022/11/15 07:06:01;;;;;;;1.83;1.75;;;;;;;7.79;76.36;100517.78;5064691;28;20044;-69
2022/11/15 07:08:28;;;;;;;0.50;0.50;;;;;;;7.83;75.92;100513.47;5065080;28;20021;-70
2022/11/15 07:10:54;;;;;;;0.52;0.52;;;;;;;7.59;76.85;100507.31;5065255;28;20025;-69
2022/11/15 07:13:19;;;;;;;0.50;0.50;;;;;;;7.75;76.42;100525.50;5065362;28;20081;-67
2022/11/15 07:15:44;;;;;;;0.50;0.50;;;;;;;7.91;75.38;100524.72;5046657;28;20045;-69
2022/11/15 07:18:10;;;;;;;0.50;0.50;;;;;;;7.82;75.95;100553.13;5065097;28;20392;-67
2022/11/15 07:20:35;;;;;;;4.47;1.55;;;;;;;7.83;75.39;100551.41;5065113;28;20025;-68
2022/11/15 07:23:04;;;;;;;0.40;0.40;;;;;;;7.73;76.13;100553.91;5065221;28;20025;-68
2022/11/15 07:25:30;;;;;;;0.40;0.40;;;;;;;8.01;75.02;100555.78;5065059;28;20081;-69
2022/11/15 07:27:57;;;;;;;2.00;1.90;;;;;;;7.96;74.92;100560.06;5065034;28;20025;-71
2022/11/15 07:30:22;;;;;;;0.50;0.50;;;;;;;7.82;75.46;100555.69;5065178;28;20025;-70
2022/11/15 07:32:54;;;;;;;0.50;0.50;;;;;;;7.92;75.30;100561.78;5068916;28;20078;-68
2022/11/15 07:35:20;;;;;;;2.22;2.13;;;;;;;8.11;74.56;100580.84;5069026;28;20144;-71
2022/11/15 07:37:56;;;;;;;0.82;0.82;;;;;;;7.98;74.36;100581.63;5050927;28;20025;-68
2022/11/15 07:40:23;;;;;;;0.50;0.50;;;;;;;7.90;75.10;100579.88;5069266;28;20032;-68
2022/11/15 07:42:55;;;;;;;0.50;0.50;;;;;;;7.78;75.48;100577.22;5069039;28;20064;-67
2022/11/15 07:45:23;;;;;;;0.50;0.50;;;;;;;7.99;74.66;100586.81;5069029;28;20017;-69
2022/11/15 07:47:49;;;;;;;1.02;1.02;;;;;;;7.94;74.65;100601.41;5068810;28;20444;-68
2022/11/15 07:50:15;;;;;;;0.47;0.47;;;;;;;7.94;74.78;100586.78;5068891;28;20029;-69
2022/11/15 07:52:41;;;;;;;0.50;0.50;;;;;;;8.09;74.31;100597.19;5068861;28;20444;-69
2022/11/15 07:55:07;;;;;;;0.50;0.50;;;;;;;7.89;74.95;100598.81;5068868;28;20056;-69
2022/11/15 07:57:32;;;;;;;0.50;0.50;;;;;;;8.13;73.63;100596.38;5068737;28;20029;-71
2022/11/15 07:59:57;;;;;;;0.50;0.50;;;;;;;8.11;74.45;100598.06;5068651;28;20017;-71
2022/11/15 08:02:23;;;;;;;0.50;0.50;;;;;;;8.08;73.95;100590.28;5068502;28;20021;-67
2022/11/15 08:04:48;;;;;;;0.50;0.50;;;;;;;8.10;73.87;100597.19;5068553;28;20051;-68
2022/11/15 08:07:14;;;;;;;0.40;0.40;;;;;;;7.98;74.56;100598.00;5068684;28;20029;-68
2022/11/15 08:09:39;;;;;;;0.50;0.50;;;;;;;8.16;73.38;100597.22;5068498;28;20025;-68
2022/11/15 08:12:05;;;;;;;1.67;1.58;;;;;;;8.26;72.92;100608.47;5068354;28;20066;-69
2022/11/15 08:14:30;;;;;;;1.48;1.38;;;;;;;8.13;73.40;100607.56;5068554;28;20044;-69
2022/11/15 08:16:56;;;;;;;0.50;0.50;;;;;;;8.10;73.59;100625.63;5067864;28;20075;-67
2022/11/15 08:19:21;;;;;;;0.55;0.55;;;;;;;8.27;72.97;100620.56;5068410;28;20025;-70
2022/11/15 08:21:46;;;;;;;1.42;1.35;;;;;;;8.09;73.52;100612.69;5068178;28;20025;-67
2022/11/15 08:24:12;;;;;;;0.50;0.50;;;;;;;8.12;73.60;100616.19;5068197;28;20048;-68
2022/11/15 08:26:37;;;;;;;0.47;0.47;;;;;;;8.53;72.01;100611.19;5068087;28;20377;-70
2022/11/15 08:29:03;;;;;;;1.05;1.05;;;;;;;8.27;72.46;100635.22;5068143;28;20055;-69
2022/11/15 08:31:28;;;;;;;0.50;0.50;;;;;;;8.23;73.04;100620.53;5068003;28;20021;-69
2022/11/15 08:33:54;;;;;;;1.70;1.60;;;;;;;8.23;72.83;100617.94;5067765;28;20056;-68
2022/11/15 08:36:19;;;;;;;0.50;0.50;;;;;;;8.35;72.20;100625.78;5068116;28;20090;-70
2022/11/15 08:38:44;;;;;;;0.50;0.50;;;;;;;8.15;73.00;100611.03;5068195;28;20029;-69
2022/11/15 08:41:13;;;;;;;0.50;0.50;;;;;;;8.17;73.20;100614.50;5049965;28;20542;-69
2022/11/15 08:43:39;;;;;;;0.50;0.50;;;;;;;8.46;71.95;100604.25;5067093;28;20025;-70
2022/11/15 08:46:04;;;;;;;0.50;0.50;;;;;;;8.35;72.44;100628.38;5067863;28;20372;-67
2022/11/15 08:48:29;;;;;;;3.13;1.65;;;;;;;8.41;71.90;100620.63;5067747;28;20029;-70
2022/11/15 08:50:56;;;;;;;1.95;1.85;;;;;;;8.32;72.43;100623.19;5049814;28;20023;-67
2022/11/15 08:53:21;;;;;;;0.82;0.82;;;;;;;8.31;72.91;100605.91;5067673;28;20021;-69
2022/11/15 08:55:47;;;;;;;0.50;0.50;;;;;;;8.37;72.60;100623.19;5067490;28;20017;-69
2022/11/15 08:58:12;;;;;;;2.05;1.50;;;;;;;8.24;73.16;100614.50;5067557;28;20342;-69
2022/11/15 09:00:38;;;;;;;0.50;0.50;;;;;;;8.30;72.79;100609.38;5067552;28;20052;-68
2022/11/15 09:03:05;;;;;;;0.50;0.50;;;;;;;8.27;73.12;100614.53;5067305;28;20033;-69
2022/11/15 09:05:30;;;;;;;0.50;0.50;;;;;;;8.54;71.69;100608.63;5067929;28;20025;-69
2022/11/15 09:07:55;;;;;;;0.50;0.50;;;;;;;8.45;71.87;100623.22;5067532;28;20568;-68
2022/11/15 09:10:21;;;;;;;0.70;0.70;;;;;;;8.68;70.87;100616.44;5067422;28;20037;-70
2022/11/15 09:12:50;;;;;;;0.60;0.60;;;;;;;8.35;71.89;100605.09;5067376;28;20064;-69
2022/11/15 09:15:16;;;;;;;0.60;0.60;;;;;;;8.26;72.97;100605.06;5066910;28;20036;-69
2022/11/15 09:17:41;;;;;;;0.50;0.50;;;;;;;8.38;72.44;100601.63;5067286;28;20036;-70
2022/11/15 09:20:07;;;;;;;0.50;0.50;;;;;;;8.33;72.60;100621.44;5067391;28;20100;-67
2022/11/15 09:22:33;;;;;;;0.70;0.70;;;;;;;8.47;71.96;100604.25;5067177;28;20047;-69
2022/11/15 09:24:58;;;;;;;0.50;0.50;;;;;;;8.57;71.09;100607.78;5067246;28;20025;-69
2022/11/15 09:27:28;;;;;;;0.50;0.50;;;;;;;8.66;71.01;100594.84;5067055;28;20488;-72
2022/11/15 09:29:53;;;;;;;0.50;0.50;;;;;;;8.67;70.70;100617.28;5067091;28;20029;-70
2022/11/15 09:32:18;;;;;;;0.50;0.50;;;;;;;8.44;71.63;100619.75;5048954;28;20024;-73
2022/11/15 09:34:43;;;;;;;1.08;1.08;;;;;;;8.58;71.34;100626.75;5066924;28;20021;-70
2022/11/15 09:37:09;;;;;;;0.60;0.60;;;;;;;8.68;71.14;100629.38;5066958;28;20039;-71
2022/11/15 09:39:34;;;;;;;0.50;0.50;;;;;;;8.59;71.61;100621.59;5066711;28;20080;-72
2022/11/15 09:42:10;;;;;;;0.60;0.60;;;;;;;8.54;71.48;100634.50;5066650;28;20025;-71
2022/11/15 09:44:54;;;;;;;0.85;0.85;;;;;;;8.43;72.33;100647.34;5066890;28;20096;-71
2022/11/15 09:48:05;;;;;;;1.40;1.40;;;;;;;8.40;72.26;100646.50;5066674;28;20075;-70
2022/11/15 09:50:43;;;;;;;1.13;1.13;;;;;;;8.30;73.12;100635.22;5066156;28;20036;-68
2022/11/15 09:53:12;;;;;;;0.50;0.50;;;;;;;8.38;72.98;100640.44;5066782;28;20029;-68
2022/11/15 09:55:50;;;;;;;0.50;0.50;;;;;;;8.52;72.32;100635.31;5065376;28;20131;-69
2022/11/15 09:58:29;;;;;;;0.50;0.50;;;;;;;8.79;71.31;100628.53;5066334;28;20097;-69
2022/11/15 10:01:00;;;;;;;0.47;0.47;;;;;;;8.50;72.60;100640.47;5066370;28;20021;-72
2022/11/15 10:03:35;;;;;;;0.50;0.50;;;;;;;8.46;72.56;100635.28;5066417;28;20021;-69
2022/11/15 10:06:04;;;;;;;0.47;0.47;;;;;;;8.71;71.64;100645.75;5066434;28;20016;-70
2022/11/15 10:08:30;;;;;;;0.70;0.70;;;;;;;8.78;71.05;100632.00;5066135;28;20054;-70
2022/11/15 10:10:58;;;;;;;0.50;0.50;;;;;;;8.61;71.74;100627.59;5066231;28;20056;-68
2022/11/15 10:13:26;;;;;;;0.75;0.75;;;;;;;8.49;72.75;100637.88;5066092;28;20052;-69
2022/11/15 10:15:54;;;;;;;0.45;0.45;;;;;;;8.79;72.06;100628.53;5065966;28;20033;-72
2022/11/15 10:18:57;;;;;;;0.60;0.60;;;;;;;8.87;71.43;100620.78;5065953;28;20092;-71
2022/11/15 10:22:02;;;;;;;0.50;0.50;;;;;;;8.65;71.96;100636.25;5066351;28;20025;-70
2022/11/15 10:24:33;;;;;;;0.47;0.47;;;;;;;8.50;72.24;100634.47;5035235;28;20039;-69
2022/11/15 10:27:00;;;;;;;2.55;2.40;;;;;;;8.65;71.96;100649.19;5066096;28;20021;-68
2022/11/15 10:29:26;;;;;;;0.50;0.50;;;;;;;8.58;72.77;100652.63;5066005;28;20040;-69
2022/11/15 10:31:51;;;;;;;0.40;0.40;;;;;;;8.82;71.53;100644.06;5065889;28;20053;-69
2022/11/15 10:34:23;;;;;;;0.50;0.50;;;;;;;8.78;71.72;100634.56;5066091;28;20501;-71
2022/11/15 10:37:00;;;;;;;0.60;0.60;;;;;;;8.66;72.16;100651.78;5065946;28;20028;-68
2022/11/15 10:39:26;;;;;;;0.50;0.50;;;;;;;8.62;72.18;100647.47;5066026;28;20032;-69
2022/11/15 10:41:51;;;;;;;0.50;0.50;;;;;;;8.70;72.08;100647.50;5065979;28;20052;-68
2022/11/15 10:44:16;;;;;;;0.40;0.40;;;;;;;8.79;71.48;100641.47;5065869;28;20105;-70
2022/11/15 10:46:46;;;;;;;1.38;1.35;;;;;;;8.75;71.25;100631.97;5065750;28;20377;-70
2022/11/15 10:49:28;;;;;;;0.50;0.50;;;;;;;8.76;71.40;100650.09;5065907;28;20036;-70
2022/11/15 10:52:12;;;;;;;0.60;0.60;;;;;;;8.72;71.61;100637.16;5066284;28;20088;-69
2022/11/15 10:54:40;;;;;;;0.40;0.40;;;;;;;8.94;70.65;100638.06;5066063;28;20385;-70
2022/11/15 10:57:12;;;;;;;0.70;0.70;;;;;;;8.85;70.67;100651.00;5065775;28;20021;-68
2022/11/15 10:59:42;;;;;;;0.50;0.50;;;;;;;8.82;70.30;100633.72;5065448;28;20052;-69
2022/11/15 11:02:29;;;;;;;0.50;0.50;;;;;;;8.93;69.98;100634.59;5065535;28;20029;-69
2022/11/15 11:04:54;;;;;;;0.50;0.50;;;;;;;8.97;69.61;100634.63;5065610;28;20031;-68
2022/11/15 11:07:22;;;;;;;0.50;0.50;;;;;;;9.23;68.19;100616.53;5065203;28;20064;-72
2022/11/15 11:10:16;;;;;;;0.63;0.63;;;;;;;8.86;69.85;100619.94;5065481;28;20036;-70
2022/11/15 11:12:41;;;;;;;0.88;0.88;;;;;;;9.36;68.18;100616.53;5065209;28;20025;-72
2022/11/15 11:15:13;;;;;;;0.50;0.50;;;;;;;9.08;68.63;100608.72;5065148;28;20036;-71
2022/11/15 11:18:00;;;;;;;16.20;1.85;;;;;;;8.97;69.10;100621.66;5065253;28;20120;-69
2022/11/15 11:20:49;;;;;;;0.50;0.50;;;;;;;8.86;69.97;100625.09;5065558;28;20354;-71
2022/11/15 11:23:47;;;;;;;0.45;0.45;;;;;;;8.76;70.48;100616.44;5065412;28;20029;-69
2022/11/15 11:26:33;;;;;;;0.50;0.50;;;;;;;8.68;71.07;100618.16;5065485;28;20021;-69
2022/11/15 11:29:14;;;;;;;0.40;0.40;;;;;;;8.80;70.99;100623.34;5065189;28;20045;-69
2022/11/15 11:31:47;;;;;;;0.50;0.50;;;;;;;8.76;71.04;100615.56;5065381;28;20044;-71
2022/11/15 11:34:29;;;;;;;0.50;0.50;;;;;;;8.82;70.88;100615.59;5065189;28;20103;-70
2022/11/15 11:36:55;;;;;;;0.50;0.50;;;;;;;8.86;70.76;100601.81;5065276;28;20473;-69
2022/11/15 11:39:26;;;;;;;0.50;0.50;;;;;;;8.84;71.14;100611.28;5065206;28;20035;-70
2022/11/15 11:42:16;;;;;;;1.30;1.30;;;;;;;8.79;71.47;100623.34;5065300;28;20020;-68
2022/11/15 11:45:08;;;;;;;0.50;0.50;;;;;;;8.85;71.26;100638.06;5065371;28;20025;-71
2022/11/15 11:47:39;;;;;;;0.55;0.55;;;;;;;8.90;71.11;100615.59;5065081;28;20608;-71
2022/11/15 11:50:14;;;;;;;0.50;0.50;;;;;;;8.96;70.32;100610.44;5065208;28;20025;-69
2022/11/15 11:52:43;;;;;;;0.45;0.45;;;;;;;8.98;70.41;100615.66;5065004;28;20029;-71
2022/11/15 11:55:28;;;;;;;10.05;1.88;;;;;;;8.97;70.26;100603.53;5064976;28;20021;-69
2022/11/15 11:57:59;;;;;;;0.50;0.50;;;;;;;9.00;70.56;100595.78;5065054;28;20112;-73
2022/11/15 12:00:28;;;;;;;0.60;0.60;;;;;;;9.07;69.82;100599.25;5065124;28;20025;-70
2022/11/15 12:03:11;;;;;;;0.50;0.50;;;;;;;9.13;69.70;100594.06;5065029;28;20535;-71
2022/11/15 12:05:43;;;;;;;0.50;0.50;;;;;;;8.90;70.94;100600.94;5065032;28;20101;-70
2022/11/15 12:08:31;;;;;;;0.60;0.60;;;;;;;9.04;70.59;100613.06;5064985;28;20032;-70
2022/11/15 12:11:20;;;;;;;0.50;0.50;;;;;;;9.28;69.69;100616.53;5046008;28;20029;-69
2022/11/15 12:13:49;;;;;;;0.90;0.90;;;;;;;9.00;70.51;100616.50;5046777;28;20033;-69
2022/11/15 12:16:21;;;;;;;0.50;0.50;;;;;;;8.99;70.82;100613.06;5064402;28;20037;-70
2022/11/15 12:18:51;;;;;;;0.50;0.50;;;;;;;9.02;70.46;100628.59;5066787;28;20029;-69
2022/11/15 12:21:34;;;;;;;0.43;0.43;;;;;;;9.01;70.74;100632.03;5068465;28;20021;-69
2022/11/15 12:24:06;;;;;;;0.40;0.40;;;;;;;9.23;70.26;100628.63;5068345;28;20041;-72